sensor_id;sensor_type;location;lat;lon;timestamp;P1;durP1;ratioP1;P2;durP2;ratioP2
21558;SDS011;10940;48.890;8.240;2024-02-26T00:01:23;0.57;;;0.57;;
21558;SDS011;10940;48.890;8.240;2024-02-26T00:03:49;0.60;;;0.60;;
21558;SDS011;10940;48.890;8.240;2024-02-26T00:06:15;0.23;;;0.23;;
21558;SDS011;10940;48.890;8.240;2024-02-26T00:08:40;0.30;;;0.30;;
21558;SDS011;10940;48.890;8.240;2024-02-26T00:11:06;0.30;;;0.30;;
21558;SDS011;10940;48.890;8.240;2024-02-26T00:13:31;0.20;;;0.20;;
21558;SDS011;10940;48.890;8.240;2024-02-26T00:15:57;0.33;;;0.33;;
21558;SDS011;10940;48.890;8.240;2024-02-26T00:18:22;1.60;;;1.03;;
21558;SDS011;10940;48.890;8.240;2024-02-26T00:20:48;0.30;;;0.30;;
21558;SDS011;10940;48.890;8.240;2024-02-26T00:23:16;0.20;;;0.20;;
21558;SDS011;10940;48.890;8.240;2024-02-26T00:25:42;0.20;;;0.20;;
21558;SDS011;10940;48.890;8.240;2024-02-26T00:28:08;0.40;;;0.40;;
21558;SDS011;10940;48.890;8.240;2024-02-26T00:30:35;0.20;;;0.20;;
21558;SDS011;10940;48.890;8.240;2024-02-26T00:33:00;0.20;;;0.20;;
21558;SDS011;10940;48.890;8.240;2024-02-26T00:35:26;0.20;;;0.20;;
21558;SDS011;10940;48.890;8.240;2024-02-26T00:37:52;0.30;;;0.30;;
21558;SDS011;10940;48.890;8.240;2024-02-26T00:40:17;0.30;;;0.30;;
21558;SDS011;10940;48.890;8.240;2024-02-26T00:42:43;0.87;;;0.87;;
21558;SDS011;10940;48.890;8.240;2024-02-26T00:45:11;0.30;;;0.30;;
21558;SDS011;10940;48.890;8.240;2024-02-26T00:47:37;0.20;;;0.20;;
21558;SDS011;10940;48.890;8.240;2024-02-26T00:50:06;0.20;;;0.20;;
21558;SDS011;10940;48.890;8.240;2024-02-26T00:52:33;6.27;;;1.50;;
21558;SDS011;10940;48.890;8.240;2024-02-26T00:54:59;0.97;;;0.63;;
21558;SDS011;10940;48.890;8.240;2024-02-26T00:57:25;0.20;;;0.20;;
21558;SDS011;10940;48.890;8.240;2024-02-26T00:59:50;0.30;;;0.30;;
21558;SDS011;10940;48.890;8.240;2024-02-26T01:02:16;0.50;;;0.50;;
21558;SDS011;10940;48.890;8.240;2024-02-26T01:04:42;0.30;;;0.30;;
21558;SDS011;10940;48.890;8.240;2024-02-26T01:07:08;0.30;;;0.30;;
21558;SDS011;10940;48.890;8.240;2024-02-26T01:09:34;0.30;;;0.30;;
21558;SDS011;10940;48.890;8.240;2024-02-26T01:11:59;0.30;;;0.30;;
21558;SDS011;10940;48.890;8.240;2024-02-26T01:14:25;0.30;;;0.30;;
21558;SDS011;10940;48.890;8.240;2024-02-26T01:16:50;0.40;;;0.40;;
21558;SDS011;10940;48.890;8.240;2024-02-26T01:19:16;0.27;;;0.27;;
21558;SDS011;10940;48.890;8.240;2024-02-26T01:21:42;0.20;;;0.20;;
21558;SDS011;10940;48.890;8.240;2024-02-26T01:24:07;0.33;;;0.33;;
21558;SDS011;10940;48.890;8.240;2024-02-26T01:26:33;0.30;;;0.30;;
21558;SDS011;10940;48.890;8.240;2024-02-26T01:28:58;0.40;;;0.40;;
21558;SDS011;10940;48.890;8.240;2024-02-26T01:31:24;0.20;;;0.20;;
21558;SDS011;10940;48.890;8.240;2024-02-26T01:33:50;0.30;;;0.30;;
21558;SDS011;10940;48.890;8.240;2024-02-26T01:36:16;0.20;;;0.20;;
21558;SDS011;10940;48.890;8.240;2024-02-26T01:38:42;0.47;;;0.40;;
21558;SDS011;10940;48.890;8.240;2024-02-26T01:41:07;0.27;;;0.27;;
21558;SDS011;10940;48.890;8.240;2024-02-26T01:43:33;0.30;;;0.30;;
21558;SDS011;10940;48.890;8.240;2024-02-26T01:45:58;0.43;;;0.43;;
21558;SDS011;10940;48.890;8.240;2024-02-26T01:48:24;0.40;;;0.40;;
21558;SDS011;10940;48.890;8.240;2024-02-26T01:50:50;0.30;;;0.30;;
21558;SDS011;10940;48.890;8.240;2024-02-26T01:53:16;0.40;;;0.40;;
21558;SDS011;10940;48.890;8.240;2024-02-26T01:55:43;0.40;;;0.40;;
21558;SDS011;10940;48.890;8.240;2024-02-26T01:58:09;0.50;;;0.50;;
21558;SDS011;10940;48.890;8.240;2024-02-26T02:00:35;0.30;;;0.30;;
21558;SDS011;10940;48.890;8.240;2024-02-26T02:03:01;0.30;;;0.30;;
21558;SDS011;10940;48.890;8.240;2024-02-26T02:05:28;0.30;;;0.30;;
21558;SDS011;10940;48.890;8.240;2024-02-26T02:07:54;2.60;;;1.07;;
21558;SDS011;10940;48.890;8.240;2024-02-26T02:10:20;0.30;;;0.30;;
21558;SDS011;10940;48.890;8.240;2024-02-26T02:12:50;0.40;;;0.40;;
21558;SDS011;10940;48.890;8.240;2024-02-26T02:15:16;0.30;;;0.30;;
21558;SDS011;10940;48.890;8.240;2024-02-26T02:17:42;0.80;;;0.80;;
21558;SDS011;10940;48.890;8.240;2024-02-26T02:20:09;0.40;;;0.40;;
21558;SDS011;10940;48.890;8.240;2024-02-26T02:22:39;0.30;;;0.30;;
21558;SDS011;10940;48.890;8.240;2024-02-26T02:25:05;0.30;;;0.30;;
21558;SDS011;10940;48.890;8.240;2024-02-26T02:27:31;0.30;;;0.30;;
21558;SDS011;10940;48.890;8.240;2024-02-26T02:29:57;0.40;;;0.40;;
21558;SDS011;10940;48.890;8.240;2024-02-26T02:32:22;0.30;;;0.30;;
21558;SDS011;10940;48.890;8.240;2024-02-26T02:34:50;0.77;;;0.77;;
21558;SDS011;10940;48.890;8.240;2024-02-26T02:37:16;0.30;;;0.30;;
21558;SDS011;10940;48.890;8.240;2024-02-26T02:39:42;0.30;;;0.30;;
21558;SDS011;10940;48.890;8.240;2024-02-26T02:42:08;0.37;;;0.37;;
21558;SDS011;10940;48.890;8.240;2024-02-26T02:44:34;0.40;;;0.40;;
21558;SDS011;10940;48.890;8.240;2024-02-26T02:47:00;0.37;;;0.37;;
21558;SDS011;10940;48.890;8.240;2024-02-26T02:49:25;0.40;;;0.40;;
21558;SDS011;10940;48.890;8.240;2024-02-26T02:51:54;0.40;;;0.40;;
21558;SDS011;10940;48.890;8.240;2024-02-26T02:54:22;0.30;;;0.30;;
21558;SDS011;10940;48.890;8.240;2024-02-26T02:56:47;0.30;;;0.30;;
21558;SDS011;10940;48.890;8.240;2024-02-26T02:59:13;0.30;;;0.30;;
21558;SDS011;10940;48.890;8.240;2024-02-26T03:01:38;0.40;;;0.40;;
21558;SDS011;10940;48.890;8.240;2024-02-26T03:04:04;0.40;;;0.40;;
21558;SDS011;10940;48.890;8.240;2024-02-26T03:06:29;0.50;;;0.50;;
21558;SDS011;10940;48.890;8.240;2024-02-26T03:08:55;0.50;;;0.50;;
21558;SDS011;10940;48.890;8.240;2024-02-26T03:11:20;0.40;;;0.40;;
21558;SDS011;10940;48.890;8.240;2024-02-26T03:13:46;0.40;;;0.40;;
21558;SDS011;10940;48.890;8.240;2024-02-26T03:16:11;0.40;;;0.40;;
21558;SDS011;10940;48.890;8.240;2024-02-26T03:18:40;0.30;;;0.30;;
21558;SDS011;10940;48.890;8.240;2024-02-26T03:21:06;0.30;;;0.30;;
21558;SDS011;10940;48.890;8.240;2024-02-26T03:23:32;0.30;;;0.30;;
21558;SDS011;10940;48.890;8.240;2024-02-26T03:26:01;0.37;;;0.37;;
21558;SDS011;10940;48.890;8.240;2024-02-26T03:28:28;0.30;;;0.30;;
21558;SDS011;10940;48.890;8.240;2024-02-26T03:30:54;0.30;;;0.30;;
21558;SDS011;10940;48.890;8.240;2024-02-26T03:33:19;2.20;;;0.77;;
21558;SDS011;10940;48.890;8.240;2024-02-26T03:35:45;0.30;;;0.30;;
21558;SDS011;10940;48.890;8.240;2024-02-26T03:38:10;1.33;;;0.50;;
21558;SDS011;10940;48.890;8.240;2024-02-26T03:40:36;0.40;;;0.40;;
21558;SDS011;10940;48.890;8.240;2024-02-26T03:43:02;0.50;;;0.50;;
21558;SDS011;10940;48.890;8.240;2024-02-26T03:45:29;0.40;;;0.40;;
21558;SDS011;10940;48.890;8.240;2024-02-26T03:47:55;0.40;;;0.40;;
21558;SDS011;10940;48.890;8.240;2024-02-26T03:50:20;4.53;;;0.73;;
21558;SDS011;10940;48.890;8.240;2024-02-26T03:52:46;0.33;;;0.33;;
21558;SDS011;10940;48.890;8.240;2024-02-26T03:55:11;0.40;;;0.40;;
21558;SDS011;10940;48.890;8.240;2024-02-26T03:57:37;1.00;;;1.00;;
21558;SDS011;10940;48.890;8.240;2024-02-26T04:00:03;0.57;;;0.57;;
21558;SDS011;10940;48.890;8.240;2024-02-26T04:02:29;0.40;;;0.40;;
21558;SDS011;10940;48.890;8.240;2024-02-26T04:04:54;0.60;;;0.60;;
21558;SDS011;10940;48.890;8.240;2024-02-26T04:07:20;0.40;;;0.40;;
21558;SDS011;10940;48.890;8.240;2024-02-26T04:09:45;0.63;;;0.63;;
21558;SDS011;10940;48.890;8.240;2024-02-26T04:12:11;0.40;;;0.40;;
21558;SDS011;10940;48.890;8.240;2024-02-26T04:14:37;0.30;;;0.30;;
21558;SDS011;10940;48.890;8.240;2024-02-26T04:17:02;0.67;;;0.67;;
21558;SDS011;10940;48.890;8.240;2024-02-26T04:19:28;0.50;;;0.50;;
21558;SDS011;10940;48.890;8.240;2024-02-26T04:21:54;0.30;;;0.30;;
21558;SDS011;10940;48.890;8.240;2024-02-26T04:24:20;0.40;;;0.40;;
21558;SDS011;10940;48.890;8.240;2024-02-26T04:26:45;0.50;;;0.50;;
21558;SDS011;10940;48.890;8.240;2024-02-26T04:29:11;0.50;;;0.50;;
21558;SDS011;10940;48.890;8.240;2024-02-26T04:31:37;0.30;;;0.30;;
21558;SDS011;10940;48.890;8.240;2024-02-26T04:34:03;0.40;;;0.40;;
21558;SDS011;10940;48.890;8.240;2024-02-26T04:36:28;0.30;;;0.30;;
21558;SDS011;10940;48.890;8.240;2024-02-26T04:38:54;0.40;;;0.40;;
21558;SDS011;10940;48.890;8.240;2024-02-26T04:41:20;0.30;;;0.30;;
21558;SDS011;10940;48.890;8.240;2024-02-26T04:43:46;0.40;;;0.40;;
21558;SDS011;10940;48.890;8.240;2024-02-26T04:46:12;0.60;;;0.60;;
21558;SDS011;10940;48.890;8.240;2024-02-26T04:48:37;0.40;;;0.40;;
21558;SDS011;10940;48.890;8.240;2024-02-26T04:51:03;0.30;;;0.30;;
21558;SDS011;10940;48.890;8.240;2024-02-26T04:53:29;0.50;;;0.50;;
21558;SDS011;10940;48.890;8.240;2024-02-26T04:55:55;0.40;;;0.40;;
21558;SDS011;10940;48.890;8.240;2024-02-26T04:58:21;0.30;;;0.30;;
21558;SDS011;10940;48.890;8.240;2024-02-26T05:00:46;0.70;;;0.70;;
21558;SDS011;10940;48.890;8.240;2024-02-26T05:03:12;0.40;;;0.40;;
21558;SDS011;10940;48.890;8.240;2024-02-26T05:05:43;0.60;;;0.60;;
21558;SDS011;10940;48.890;8.240;2024-02-26T05:08:09;0.50;;;0.50;;
21558;SDS011;10940;48.890;8.240;2024-02-26T05:10:35;0.30;;;0.30;;
21558;SDS011;10940;48.890;8.240;2024-02-26T05:13:04;0.40;;;0.40;;
21558;SDS011;10940;48.890;8.240;2024-02-26T05:15:30;0.40;;;0.40;;
21558;SDS011;10940;48.890;8.240;2024-02-26T05:17:56;0.47;;;0.47;;
21558;SDS011;10940;48.890;8.240;2024-02-26T05:20:21;1.83;;;1.07;;
21558;SDS011;10940;48.890;8.240;2024-02-26T05:22:47;2.67;;;2.43;;
21558;SDS011;10940;48.890;8.240;2024-02-26T05:25:14;9.60;;;3.27;;
21558;SDS011;10940;48.890;8.240;2024-02-26T05:27:41;7.30;;;3.10;;
21558;SDS011;10940;48.890;8.240;2024-02-26T05:30:06;4.13;;;2.97;;
21558;SDS011;10940;48.890;8.240;2024-02-26T05:32:32;37.57;;;3.90;;
21558;SDS011;10940;48.890;8.240;2024-02-26T05:34:58;1.83;;;1.53;;
21558;SDS011;10940;48.890;8.240;2024-02-26T05:37:23;6.67;;;4.30;;
21558;SDS011;10940;48.890;8.240;2024-02-26T05:39:49;2.00;;;1.50;;
21558;SDS011;10940;48.890;8.240;2024-02-26T05:42:15;0.70;;;0.70;;
21558;SDS011;10940;48.890;8.240;2024-02-26T05:44:40;0.50;;;0.50;;
21558;SDS011;10940;48.890;8.240;2024-02-26T05:47:06;0.40;;;0.40;;
21558;SDS011;10940;48.890;8.240;2024-02-26T05:49:32;0.47;;;0.47;;
21558;SDS011;10940;48.890;8.240;2024-02-26T05:51:58;0.33;;;0.33;;
21558;SDS011;10940;48.890;8.240;2024-02-26T05:54:24;0.50;;;0.50;;
21558;SDS011;10940;48.890;8.240;2024-02-26T05:56:49;0.70;;;0.70;;
21558;SDS011;10940;48.890;8.240;2024-02-26T05:59:15;0.40;;;0.40;;
21558;SDS011;10940;48.890;8.240;2024-02-26T06:01:40;0.30;;;0.30;;
21558;SDS011;10940;48.890;8.240;2024-02-26T06:04:06;0.50;;;0.50;;
21558;SDS011;10940;48.890;8.240;2024-02-26T06:06:32;0.47;;;0.47;;
21558;SDS011;10940;48.890;8.240;2024-02-26T06:08:58;1.00;;;0.90;;
21558;SDS011;10940;48.890;8.240;2024-02-26T06:11:23;0.50;;;0.50;;
21558;SDS011;10940;48.890;8.240;2024-02-26T06:13:49;0.50;;;0.50;;
21558;SDS011;10940;48.890;8.240;2024-02-26T06:16:14;0.50;;;0.50;;
21558;SDS011;10940;48.890;8.240;2024-02-26T06:18:40;0.50;;;0.50;;
21558;SDS011;10940;48.890;8.240;2024-02-26T06:21:10;0.43;;;0.43;;
21558;SDS011;10940;48.890;8.240;2024-02-26T06:23:36;0.57;;;0.57;;
21558;SDS011;10940;48.890;8.240;2024-02-26T06:26:02;0.30;;;0.30;;
21558;SDS011;10940;48.890;8.240;2024-02-26T06:28:28;0.50;;;0.50;;
21558;SDS011;10940;48.890;8.240;2024-02-26T06:30:55;0.40;;;0.40;;
21558;SDS011;10940;48.890;8.240;2024-02-26T06:33:21;0.47;;;0.47;;
21558;SDS011;10940;48.890;8.240;2024-02-26T06:35:46;0.93;;;0.93;;
21558;SDS011;10940;48.890;8.240;2024-02-26T06:38:12;1.00;;;1.00;;
21558;SDS011;10940;48.890;8.240;2024-02-26T06:40:38;0.67;;;0.67;;
21558;SDS011;10940;48.890;8.240;2024-02-26T06:43:04;0.77;;;0.77;;
21558;SDS011;10940;48.890;8.240;2024-02-26T06:45:31;0.40;;;0.40;;
21558;SDS011;10940;48.890;8.240;2024-02-26T06:47:56;0.40;;;0.40;;
21558;SDS011;10940;48.890;8.240;2024-02-26T06:50:22;0.40;;;0.40;;
21558;SDS011;10940;48.890;8.240;2024-02-26T06:52:47;0.30;;;0.30;;
21558;SDS011;10940;48.890;8.240;2024-02-26T06:55:13;0.30;;;0.30;;
21558;SDS011;10940;48.890;8.240;2024-02-26T06:57:39;0.50;;;0.50;;
21558;SDS011;10940;48.890;8.240;2024-02-26T07:00:04;0.80;;;0.80;;
21558;SDS011;10940;48.890;8.240;2024-02-26T07:02:31;0.60;;;0.60;;
21558;SDS011;10940;48.890;8.240;2024-02-26T07:04:57;0.40;;;0.40;;
21558;SDS011;10940;48.890;8.240;2024-02-26T07:07:23;1.00;;;0.97;;
21558;SDS011;10940;48.890;8.240;2024-02-26T07:09:49;0.90;;;0.90;;
21558;SDS011;10940;48.890;8.240;2024-02-26T07:12:15;1.50;;;1.40;;
21558;SDS011;10940;48.890;8.240;2024-02-26T07:14:46;1.07;;;1.07;;
21558;SDS011;10940;48.890;8.240;2024-02-26T07:17:12;0.60;;;0.60;;
21558;SDS011;10940;48.890;8.240;2024-02-26T07:19:37;11.33;;;2.70;;
21558;SDS011;10940;48.890;8.240;2024-02-26T07:22:03;2.00;;;1.40;;
21558;SDS011;10940;48.890;8.240;2024-02-26T07:24:29;1.53;;;1.47;;
21558;SDS011;10940;48.890;8.240;2024-02-26T07:26:54;1.33;;;1.33;;
21558;SDS011;10940;48.890;8.240;2024-02-26T07:29:20;0.83;;;0.83;;
21558;SDS011;10940;48.890;8.240;2024-02-26T07:31:47;1.10;;;1.10;;
21558;SDS011;10940;48.890;8.240;2024-02-26T07:34:12;0.90;;;0.90;;
21558;SDS011;10940;48.890;8.240;2024-02-26T07:36:38;2.20;;;2.10;;
21558;SDS011;10940;48.890;8.240;2024-02-26T07:39:04;0.67;;;0.67;;
21558;SDS011;10940;48.890;8.240;2024-02-26T07:41:30;1.13;;;1.13;;
21558;SDS011;10940;48.890;8.240;2024-02-26T07:43:57;1.10;;;1.10;;
21558;SDS011;10940;48.890;8.240;2024-02-26T07:46:22;2.23;;;2.13;;
21558;SDS011;10940;48.890;8.240;2024-02-26T07:48:48;1.83;;;1.73;;
21558;SDS011;10940;48.890;8.240;2024-02-26T07:51:13;1.67;;;1.57;;
21558;SDS011;10940;48.890;8.240;2024-02-26T07:53:39;3.20;;;2.90;;
21558;SDS011;10940;48.890;8.240;2024-02-26T07:56:05;2.03;;;1.93;;
21558;SDS011;10940;48.890;8.240;2024-02-26T07:58:32;1.13;;;1.13;;
21558;SDS011;10940;48.890;8.240;2024-02-26T08:00:58;1.03;;;1.03;;
21558;SDS011;10940;48.890;8.240;2024-02-26T08:03:23;0.80;;;0.80;;
21558;SDS011;10940;48.890;8.240;2024-02-26T08:05:50;0.90;;;0.90;;
21558;SDS011;10940;48.890;8.240;2024-02-26T08:08:16;1.07;;;1.00;;
21558;SDS011;10940;48.890;8.240;2024-02-26T08:10:42;1.03;;;1.00;;
21558;SDS011;10940;48.890;8.240;2024-02-26T08:13:07;0.67;;;0.67;;
21558;SDS011;10940;48.890;8.240;2024-02-26T08:15:33;2.37;;;1.23;;
21558;SDS011;10940;48.890;8.240;2024-02-26T08:18:02;0.70;;;0.70;;
21558;SDS011;10940;48.890;8.240;2024-02-26T08:20:29;1.13;;;1.13;;
21558;SDS011;10940;48.890;8.240;2024-02-26T08:22:55;0.60;;;0.60;;
21558;SDS011;10940;48.890;8.240;2024-02-26T08:25:21;1.07;;;1.07;;
21558;SDS011;10940;48.890;8.240;2024-02-26T08:27:47;0.63;;;0.63;;
21558;SDS011;10940;48.890;8.240;2024-02-26T08:30:13;0.60;;;0.60;;
21558;SDS011;10940;48.890;8.240;2024-02-26T08:32:42;0.97;;;0.97;;
21558;SDS011;10940;48.890;8.240;2024-02-26T08:35:08;0.50;;;0.50;;
21558;SDS011;10940;48.890;8.240;2024-02-26T08:37:33;1.23;;;1.23;;
21558;SDS011;10940;48.890;8.240;2024-02-26T08:39:59;1.03;;;1.03;;
21558;SDS011;10940;48.890;8.240;2024-02-26T08:42:24;1.23;;;1.23;;
21558;SDS011;10940;48.890;8.240;2024-02-26T08:44:50;0.87;;;0.87;;
21558;SDS011;10940;48.890;8.240;2024-02-26T08:47:15;6.03;;;2.43;;
21558;SDS011;10940;48.890;8.240;2024-02-26T08:49:44;0.60;;;0.60;;
21558;SDS011;10940;48.890;8.240;2024-02-26T08:52:10;0.73;;;0.73;;
21558;SDS011;10940;48.890;8.240;2024-02-26T08:54:36;1.03;;;1.03;;
21558;SDS011;10940;48.890;8.240;2024-02-26T08:57:02;0.53;;;0.53;;
21558;SDS011;10940;48.890;8.240;2024-02-26T08:59:28;1.57;;;1.47;;
21558;SDS011;10940;48.890;8.240;2024-02-26T09:01:54;0.97;;;0.97;;
21558;SDS011;10940;48.890;8.240;2024-02-26T09:04:19;0.90;;;0.90;;
21558;SDS011;10940;48.890;8.240;2024-02-26T09:06:45;1.67;;;1.57;;
21558;SDS011;10940;48.890;8.240;2024-02-26T09:09:11;0.63;;;0.63;;
21558;SDS011;10940;48.890;8.240;2024-02-26T09:11:36;0.40;;;0.40;;
21558;SDS011;10940;48.890;8.240;2024-02-26T09:14:02;0.63;;;0.57;;
21558;SDS011;10940;48.890;8.240;2024-02-26T09:16:28;1.17;;;1.07;;
21558;SDS011;10940;48.890;8.240;2024-02-26T09:18:54;1.10;;;1.00;;
21558;SDS011;10940;48.890;8.240;2024-02-26T09:21:21;0.70;;;0.70;;
21558;SDS011;10940;48.890;8.240;2024-02-26T09:23:52;0.73;;;0.73;;
21558;SDS011;10940;48.890;8.240;2024-02-26T09:26:18;0.70;;;0.70;;
21558;SDS011;10940;48.890;8.240;2024-02-26T09:28:44;0.70;;;0.70;;
21558;SDS011;10940;48.890;8.240;2024-02-26T09:31:09;0.63;;;0.60;;
21558;SDS011;10940;48.890;8.240;2024-02-26T09:33:35;0.30;;;0.30;;
21558;SDS011;10940;48.890;8.240;2024-02-26T09:36:01;2.30;;;1.83;;
21558;SDS011;10940;48.890;8.240;2024-02-26T09:38:27;0.40;;;0.40;;
21558;SDS011;10940;48.890;8.240;2024-02-26T09:40:54;0.43;;;0.43;;
21558;SDS011;10940;48.890;8.240;2024-02-26T09:43:23;0.60;;;0.60;;
21558;SDS011;10940;48.890;8.240;2024-02-26T09:45:55;0.53;;;0.53;;
21558;SDS011;10940;48.890;8.240;2024-02-26T09:48:21;1.20;;;1.07;;
21558;SDS011;10940;48.890;8.240;2024-02-26T09:50:48;1.17;;;0.80;;
21558;SDS011;10940;48.890;8.240;2024-02-26T09:53:14;0.50;;;0.50;;
21558;SDS011;10940;48.890;8.240;2024-02-26T09:55:41;1.60;;;1.50;;
21558;SDS011;10940;48.890;8.240;2024-02-26T09:58:06;0.60;;;0.60;;
21558;SDS011;10940;48.890;8.240;2024-02-26T10:00:32;0.60;;;0.60;;
21558;SDS011;10940;48.890;8.240;2024-02-26T10:03:03;0.83;;;0.83;;
21558;SDS011;10940;48.890;8.240;2024-02-26T10:05:31;0.57;;;0.57;;
21558;SDS011;10940;48.890;8.240;2024-02-26T10:07:58;0.43;;;0.43;;
21558;SDS011;10940;48.890;8.240;2024-02-26T10:10:26;0.50;;;0.50;;
21558;SDS011;10940;48.890;8.240;2024-02-26T10:12:54;0.53;;;0.53;;
21558;SDS011;10940;48.890;8.240;2024-02-26T10:15:19;0.63;;;0.63;;
21558;SDS011;10940;48.890;8.240;2024-02-26T10:17:45;0.40;;;0.40;;
21558;SDS011;10940;48.890;8.240;2024-02-26T10:20:17;0.57;;;0.57;;
21558;SDS011;10940;48.890;8.240;2024-02-26T10:22:46;0.80;;;0.80;;
21558;SDS011;10940;48.890;8.240;2024-02-26T10:25:12;0.60;;;0.60;;
21558;SDS011;10940;48.890;8.240;2024-02-26T10:27:38;0.73;;;0.73;;
21558;SDS011;10940;48.890;8.240;2024-02-26T10:30:15;0.50;;;0.50;;
21558;SDS011;10940;48.890;8.240;2024-02-26T10:32:46;0.87;;;0.87;;
21558;SDS011;10940;48.890;8.240;2024-02-26T10:35:15;0.40;;;0.40;;
21558;SDS011;10940;48.890;8.240;2024-02-26T10:37:42;0.30;;;0.30;;
21558;SDS011;10940;48.890;8.240;2024-02-26T10:40:12;0.90;;;0.43;;
21558;SDS011;10940;48.890;8.240;2024-02-26T10:42:39;0.33;;;0.33;;
21558;SDS011;10940;48.890;8.240;2024-02-26T10:45:05;0.40;;;0.40;;
21558;SDS011;10940;48.890;8.240;2024-02-26T10:47:32;0.50;;;0.50;;
21558;SDS011;10940;48.890;8.240;2024-02-26T10:49:58;0.60;;;0.60;;
21558;SDS011;10940;48.890;8.240;2024-02-26T10:52:26;0.50;;;0.50;;
21558;SDS011;10940;48.890;8.240;2024-02-26T10:54:53;1.00;;;1.00;;
21558;SDS011;10940;48.890;8.240;2024-02-26T10:57:21;0.30;;;0.30;;
21558;SDS011;10940;48.890;8.240;2024-02-26T10:59:49;0.30;;;0.30;;
21558;SDS011;10940;48.890;8.240;2024-02-26T11:02:16;0.40;;;0.40;;
21558;SDS011;10940;48.890;8.240;2024-02-26T11:04:43;0.30;;;0.30;;
21558;SDS011;10940;48.890;8.240;2024-02-26T11:07:10;0.40;;;0.40;;
21558;SDS011;10940;48.890;8.240;2024-02-26T11:09:36;0.40;;;0.40;;
21558;SDS011;10940;48.890;8.240;2024-02-26T11:12:08;0.60;;;0.60;;
21558;SDS011;10940;48.890;8.240;2024-02-26T11:14:37;0.30;;;0.30;;
21558;SDS011;10940;48.890;8.240;2024-02-26T11:17:04;0.30;;;0.30;;
21558;SDS011;10940;48.890;8.240;2024-02-26T11:19:32;0.30;;;0.30;;
21558;SDS011;10940;48.890;8.240;2024-02-26T11:22:00;0.30;;;0.30;;
21558;SDS011;10940;48.890;8.240;2024-02-26T11:24:26;0.20;;;0.20;;
21558;SDS011;10940;48.890;8.240;2024-02-26T11:26:57;0.20;;;0.20;;
21558;SDS011;10940;48.890;8.240;2024-02-26T11:29:27;0.80;;;0.80;;
21558;SDS011;10940;48.890;8.240;2024-02-26T11:32:05;0.30;;;0.30;;
21558;SDS011;10940;48.890;8.240;2024-02-26T11:34:31;0.30;;;0.30;;
21558;SDS011;10940;48.890;8.240;2024-02-26T11:36:57;0.30;;;0.30;;
21558;SDS011;10940;48.890;8.240;2024-02-26T11:39:33;0.40;;;0.40;;
21558;SDS011;10940;48.890;8.240;2024-02-26T11:42:09;0.40;;;0.40;;
21558;SDS011;10940;48.890;8.240;2024-02-26T11:44:39;0.20;;;0.20;;
21558;SDS011;10940;48.890;8.240;2024-02-26T11:47:10;0.30;;;0.30;;
21558;SDS011;10940;48.890;8.240;2024-02-26T11:49:36;0.53;;;0.47;;
21558;SDS011;10940;48.890;8.240;2024-02-26T11:52:04;0.20;;;0.20;;
21558;SDS011;10940;48.890;8.240;2024-02-26T11:54:51;0.30;;;0.30;;
21558;SDS011;10940;48.890;8.240;2024-02-26T11:57:27;0.30;;;0.30;;
21558;SDS011;10940;48.890;8.240;2024-02-26T12:02:41;0.20;;;0.20;;
21558;SDS011;10940;48.890;8.240;2024-02-26T12:05:12;0.20;;;0.20;;
21558;SDS011;10940;48.890;8.240;2024-02-26T12:07:53;0.20;;;0.20;;
21558;SDS011;10940;48.890;8.240;2024-02-26T12:13:00;0.20;;;0.20;;
21558;SDS011;10940;48.890;8.240;2024-02-26T12:15:33;0.20;;;0.20;;
21558;SDS011;10940;48.890;8.240;2024-02-26T12:18:01;0.20;;;0.20;;
21558;SDS011;10940;48.890;8.240;2024-02-26T12:20:31;0.30;;;0.30;;
21558;SDS011;10940;48.890;8.240;2024-02-26T12:22:57;0.20;;;0.20;;
21558;SDS011;10940;48.890;8.240;2024-02-26T12:25:24;7.83;;;1.03;;
21558;SDS011;10940;48.890;8.240;2024-02-26T12:27:54;0.20;;;0.20;;
21558;SDS011;10940;48.890;8.240;2024-02-26T12:30:20;0.33;;;0.33;;
21558;SDS011;10940;48.890;8.240;2024-02-26T12:32:47;0.30;;;0.30;;
21558;SDS011;10940;48.890;8.240;2024-02-26T12:35:14;0.30;;;0.30;;
21558;SDS011;10940;48.890;8.240;2024-02-26T12:37:41;0.30;;;0.30;;
21558;SDS011;10940;48.890;8.240;2024-02-26T12:40:10;0.20;;;0.20;;
21558;SDS011;10940;48.890;8.240;2024-02-26T12:42:38;0.27;;;0.27;;
21558;SDS011;10940;48.890;8.240;2024-02-26T12:45:09;0.20;;;0.20;;
21558;SDS011;10940;48.890;8.240;2024-02-26T12:47:40;0.20;;;0.20;;
21558;SDS011;10940;48.890;8.240;2024-02-26T12:50:14;0.20;;;0.20;;
21558;SDS011;10940;48.890;8.240;2024-02-26T12:52:44;0.20;;;0.20;;
21558;SDS011;10940;48.890;8.240;2024-02-26T12:55:16;2.00;;;0.73;;
21558;SDS011;10940;48.890;8.240;2024-02-26T12:57:45;0.20;;;0.20;;
21558;SDS011;10940;48.890;8.240;2024-02-26T13:00:12;0.30;;;0.30;;
21558;SDS011;10940;48.890;8.240;2024-02-26T13:02:40;0.20;;;0.20;;
21558;SDS011;10940;48.890;8.240;2024-02-26T13:05:09;0.63;;;0.63;;
21558;SDS011;10940;48.890;8.240;2024-02-26T13:07:40;0.13;;;0.13;;
21558;SDS011;10940;48.890;8.240;2024-02-26T13:10:11;0.30;;;0.30;;
21558;SDS011;10940;48.890;8.240;2024-02-26T13:12:38;0.30;;;0.30;;
21558;SDS011;10940;48.890;8.240;2024-02-26T13:15:18;0.30;;;0.30;;
21558;SDS011;10940;48.890;8.240;2024-02-26T13:17:45;0.40;;;0.40;;
21558;SDS011;10940;48.890;8.240;2024-02-26T13:20:11;0.77;;;0.77;;
21558;SDS011;10940;48.890;8.240;2024-02-26T13:22:38;0.10;;;0.10;;
21558;SDS011;10940;48.890;8.240;2024-02-26T13:25:04;0.10;;;0.10;;
21558;SDS011;10940;48.890;8.240;2024-02-26T13:27:32;0.10;;;0.10;;
21558;SDS011;10940;48.890;8.240;2024-02-26T13:30:05;0.20;;;0.20;;
21558;SDS011;10940;48.890;8.240;2024-02-26T13:32:49;1.60;;;0.73;;
21558;SDS011;10940;48.890;8.240;2024-02-26T13:35:14;0.20;;;0.20;;
21558;SDS011;10940;48.890;8.240;2024-02-26T13:37:40;0.20;;;0.20;;
21558;SDS011;10940;48.890;8.240;2024-02-26T13:42:33;0.20;;;0.20;;
21558;SDS011;10940;48.890;8.240;2024-02-26T13:44:59;0.20;;;0.20;;
21558;SDS011;10940;48.890;8.240;2024-02-26T13:47:24;0.20;;;0.20;;
21558;SDS011;10940;48.890;8.240;2024-02-26T13:49:50;0.20;;;0.20;;
21558;SDS011;10940;48.890;8.240;2024-02-26T13:52:16;0.10;;;0.10;;
21558;SDS011;10940;48.890;8.240;2024-02-26T13:54:41;2.00;;;1.07;;
21558;SDS011;10940;48.890;8.240;2024-02-26T13:57:07;0.30;;;0.30;;
21558;SDS011;10940;48.890;8.240;2024-02-26T13:59:33;0.10;;;0.10;;
21558;SDS011;10940;48.890;8.240;2024-02-26T14:01:59;0.73;;;0.57;;
21558;SDS011;10940;48.890;8.240;2024-02-26T14:04:25;0.30;;;0.30;;
21558;SDS011;10940;48.890;8.240;2024-02-26T14:06:51;0.30;;;0.30;;
21558;SDS011;10940;48.890;8.240;2024-02-26T14:09:16;0.30;;;0.30;;
21558;SDS011;10940;48.890;8.240;2024-02-26T14:11:44;0.40;;;0.40;;
21558;SDS011;10940;48.890;8.240;2024-02-26T14:14:10;0.30;;;0.30;;
21558;SDS011;10940;48.890;8.240;2024-02-26T14:16:36;0.20;;;0.20;;
21558;SDS011;10940;48.890;8.240;2024-02-26T14:19:02;0.20;;;0.20;;
21558;SDS011;10940;48.890;8.240;2024-02-26T14:21:28;0.10;;;0.10;;
21558;SDS011;10940;48.890;8.240;2024-02-26T14:23:54;0.13;;;0.13;;
21558;SDS011;10940;48.890;8.240;2024-02-26T14:26:21;0.20;;;0.20;;
21558;SDS011;10940;48.890;8.240;2024-02-26T14:28:47;0.20;;;0.20;;
21558;SDS011;10940;48.890;8.240;2024-02-26T14:31:13;0.20;;;0.20;;
21558;SDS011;10940;48.890;8.240;2024-02-26T14:33:42;0.20;;;0.20;;
21558;SDS011;10940;48.890;8.240;2024-02-26T14:36:07;0.20;;;0.20;;
21558;SDS011;10940;48.890;8.240;2024-02-26T14:38:33;0.20;;;0.20;;
21558;SDS011;10940;48.890;8.240;2024-02-26T14:40:58;0.20;;;0.20;;
21558;SDS011;10940;48.890;8.240;2024-02-26T14:43:24;0.20;;;0.20;;
21558;SDS011;10940;48.890;8.240;2024-02-26T14:45:49;0.20;;;0.20;;
21558;SDS011;10940;48.890;8.240;2024-02-26T14:48:15;0.20;;;0.20;;
21558;SDS011;10940;48.890;8.240;2024-02-26T14:50:40;0.83;;;0.83;;
21558;SDS011;10940;48.890;8.240;2024-02-26T14:53:06;0.20;;;0.20;;